sensor_id;sensor_type;location;lat;lon;timestamp;P1;durP1;ratioP1;P2;durP2;ratioP2
52620;SDS011;38515;53.160;6.990;2023-02-28T00:01:09;404.73;;;388.65;;
52620;SDS011;38515;53.160;6.990;2023-02-28T00:03:36;418.50;;;401.25;;
52620;SDS011;38515;53.160;6.990;2023-02-28T00:06:05;400.90;;;385.27;;
52620;SDS011;38515;53.160;6.990;2023-02-28T00:08:32;369.65;;;354.90;;
52620;SDS011;38515;53.160;6.990;2023-02-28T00:11:02;427.65;;;410.23;;
52620;SDS011;38515;53.160;6.990;2023-02-28T00:13:29;390.88;;;375.25;;
52620;SDS011;38515;53.160;6.990;2023-02-28T00:15:59;378.65;;;363.73;;
52620;SDS011;38515;53.160;6.990;2023-02-28T00:18:29;390.33;;;374.23;;
52620;SDS011;38515;53.160;6.990;2023-02-28T00:20:56;394.92;;;379.35;;
52620;SDS011;38515;53.160;6.990;2023-02-28T00:23:23;392.20;;;376.48;;
52620;SDS011;38515;53.160;6.990;2023-02-28T00:25:49;348.50;;;335.42;;
52620;SDS011;38515;53.160;6.990;2023-02-28T00:28:16;341.20;;;328.40;;
52620;SDS011;38515;53.160;6.990;2023-02-28T00:30:42;332.77;;;319.38;;
52620;SDS011;38515;53.160;6.990;2023-02-28T00:33:08;338.40;;;325.83;;
52620;SDS011;38515;53.160;6.990;2023-02-28T00:35:34;308.55;;;297.13;;
52620;SDS011;38515;53.160;6.990;2023-02-28T00:38:00;303.23;;;292.13;;
52620;SDS011;38515;53.160;6.990;2023-02-28T00:40:26;335.20;;;322.73;;
52620;SDS011;38515;53.160;6.990;2023-02-28T00:42:52;326.38;;;314.17;;
52620;SDS011;38515;53.160;6.990;2023-02-28T00:45:18;342.77;;;330.08;;
52620;SDS011;38515;53.160;6.990;2023-02-28T00:47:44;329.35;;;316.90;;
52620;SDS011;38515;53.160;6.990;2023-02-28T00:50:11;310.98;;;299.58;;
52620;SDS011;38515;53.160;6.990;2023-02-28T00:52:37;330.48;;;318.23;;
52620;SDS011;38515;53.160;6.990;2023-02-28T00:55:04;312.80;;;301.33;;
52620;SDS011;38515;53.160;6.990;2023-02-28T00:57:30;295.73;;;284.67;;
52620;SDS011;38515;53.160;6.990;2023-02-28T00:59:56;303.42;;;292.35;;
52620;SDS011;38515;53.160;6.990;2023-02-28T01:02:22;296.83;;;286.02;;
52620;SDS011;38515;53.160;6.990;2023-02-28T01:04:48;287.77;;;277.33;;
52620;SDS011;38515;53.160;6.990;2023-02-28T01:07:14;291.33;;;280.77;;
52620;SDS011;38515;53.160;6.990;2023-02-28T01:09:41;280.75;;;270.35;;
52620;SDS011;38515;53.160;6.990;2023-02-28T01:12:07;303.52;;;292.25;;
52620;SDS011;38515;53.160;6.990;2023-02-28T01:14:34;304.13;;;292.77;;
52620;SDS011;38515;53.160;6.990;2023-02-28T01:17:00;288.38;;;277.25;;
52620;SDS011;38515;53.160;6.990;2023-02-28T01:19:26;229.35;;;220.88;;
52620;SDS011;38515;53.160;6.990;2023-02-28T01:21:52;242.93;;;234.02;;
52620;SDS011;38515;53.160;6.990;2023-02-28T01:24:18;265.50;;;255.63;;
52620;SDS011;38515;53.160;6.990;2023-02-28T01:26:44;305.58;;;294.10;;
52620;SDS011;38515;53.160;6.990;2023-02-28T01:29:10;281.98;;;271.38;;
52620;SDS011;38515;53.160;6.990;2023-02-28T01:31:36;240.18;;;231.50;;
52620;SDS011;38515;53.160;6.990;2023-02-28T01:34:02;247.18;;;237.00;;
52620;SDS011;38515;53.160;6.990;2023-02-28T01:36:28;274.52;;;263.70;;
52620;SDS011;38515;53.160;6.990;2023-02-28T01:38:55;272.48;;;262.30;;
52620;SDS011;38515;53.160;6.990;2023-02-28T01:46:14;233.98;;;225.35;;
52620;SDS011;38515;53.160;6.990;2023-02-28T01:49:26;257.95;;;247.68;;
52620;SDS011;38515;53.160;6.990;2023-02-28T01:51:41;241.23;;;232.45;;
52620;SDS011;38515;53.160;6.990;2023-02-28T01:54:16;218.27;;;209.75;;
52620;SDS011;38515;53.160;6.990;2023-02-28T01:56:54;235.15;;;226.20;;
52620;SDS011;38515;53.160;6.990;2023-02-28T02:02:11;252.68;;;243.63;;
52620;SDS011;38515;53.160;6.990;2023-02-28T02:04:39;224.88;;;216.45;;
52620;SDS011;38515;53.160;6.990;2023-02-28T02:07:09;231.65;;;223.13;;
52620;SDS011;38515;53.160;6.990;2023-02-28T02:09:37;249.55;;;240.20;;
52620;SDS011;38515;53.160;6.990;2023-02-28T02:12:06;221.63;;;212.50;;
52620;SDS011;38515;53.160;6.990;2023-02-28T02:15:06;191.07;;;184.23;;
52620;SDS011;38515;53.160;6.990;2023-02-28T02:17:47;233.10;;;224.25;;
52620;SDS011;38515;53.160;6.990;2023-02-28T02:42:35;164.60;;;158.02;;
52620;SDS011;38515;53.160;6.990;2023-02-28T02:45:32;190.18;;;182.60;;
52620;SDS011;38515;53.160;6.990;2023-02-28T02:48:05;153.48;;;147.57;;
52620;SDS011;38515;53.160;6.990;2023-02-28T02:50:35;121.68;;;117.00;;
52620;SDS011;38515;53.160;6.990;2023-02-28T02:53:04;248.27;;;238.60;;
52620;SDS011;38515;53.160;6.990;2023-02-28T02:55:33;138.15;;;132.75;;
52620;SDS011;38515;53.160;6.990;2023-02-28T02:58:04;128.65;;;123.78;;
52620;SDS011;38515;53.160;6.990;2023-02-28T03:00:41;122.47;;;117.63;;
52620;SDS011;38515;53.160;6.990;2023-02-28T03:03:11;194.88;;;187.45;;
52620;SDS011;38515;53.160;6.990;2023-02-28T03:05:44;216.93;;;208.77;;
52620;SDS011;38515;53.160;6.990;2023-02-28T03:08:12;161.23;;;155.13;;
52620;SDS011;38515;53.160;6.990;2023-02-28T03:10:41;134.32;;;128.55;;
52620;SDS011;38515;53.160;6.990;2023-02-28T03:13:16;202.20;;;194.48;;
52620;SDS011;38515;53.160;6.990;2023-02-28T03:15:49;100.35;;;96.38;;
52620;SDS011;38515;53.160;6.990;2023-02-28T03:18:36;190.40;;;183.10;;
52620;SDS011;38515;53.160;6.990;2023-02-28T03:21:26;139.00;;;133.43;;
52620;SDS011;38515;53.160;6.990;2023-02-28T03:26:45;141.90;;;136.57;;
52620;SDS011;38515;53.160;6.990;2023-02-28T03:31:53;141.82;;;136.60;;
52620;SDS011;38515;53.160;6.990;2023-02-28T03:34:33;163.40;;;157.48;;
52620;SDS011;38515;53.160;6.990;2023-02-28T03:37:05;150.25;;;144.68;;
52620;SDS011;38515;53.160;6.990;2023-02-28T03:39:43;162.77;;;156.70;;
52620;SDS011;38515;53.160;6.990;2023-02-28T03:47:25;151.52;;;146.02;;
52620;SDS011;38515;53.160;6.990;2023-02-28T03:50:05;165.50;;;159.40;;
52620;SDS011;38515;53.160;6.990;2023-02-28T03:52:34;148.10;;;141.60;;
52620;SDS011;38515;53.160;6.990;2023-02-28T03:55:06;133.00;;;127.82;;
52620;SDS011;38515;53.160;6.990;2023-02-28T03:57:53;145.27;;;139.85;;
52620;SDS011;38515;53.160;6.990;2023-02-28T04:00:34;193.88;;;186.65;;
52620;SDS011;38515;53.160;6.990;2023-02-28T04:03:05;174.10;;;167.38;;
52620;SDS011;38515;53.160;6.990;2023-02-28T04:05:31;195.77;;;188.32;;
52620;SDS011;38515;53.160;6.990;2023-02-28T04:08:05;185.65;;;178.45;;
52620;SDS011;38515;53.160;6.990;2023-02-28T04:10:32;181.82;;;174.98;;
52620;SDS011;38515;53.160;6.990;2023-02-28T04:12:58;200.38;;;192.88;;
52620;SDS011;38515;53.160;6.990;2023-02-28T04:15:24;201.55;;;193.93;;
52620;SDS011;38515;53.160;6.990;2023-02-28T04:17:50;217.07;;;209.07;;
52620;SDS011;38515;53.160;6.990;2023-02-28T04:20:16;215.45;;;207.57;;
52620;SDS011;38515;53.160;6.990;2023-02-28T04:22:42;218.55;;;210.45;;
52620;SDS011;38515;53.160;6.990;2023-02-28T04:25:08;203.30;;;195.35;;
52620;SDS011;38515;53.160;6.990;2023-02-28T04:27:33;208.52;;;200.52;;
52620;SDS011;38515;53.160;6.990;2023-02-28T04:30:00;233.20;;;224.25;;
52620;SDS011;38515;53.160;6.990;2023-02-28T04:32:25;175.10;;;168.45;;
52620;SDS011;38515;53.160;6.990;2023-02-28T04:34:51;188.63;;;181.80;;
52620;SDS011;38515;53.160;6.990;2023-02-28T04:37:17;205.70;;;197.88;;
52620;SDS011;38515;53.160;6.990;2023-02-28T04:39:43;210.07;;;200.88;;
52620;SDS011;38515;53.160;6.990;2023-02-28T04:42:10;243.23;;;234.13;;
52620;SDS011;38515;53.160;6.990;2023-02-28T04:44:36;230.65;;;222.30;;
52620;SDS011;38515;53.160;6.990;2023-02-28T04:47:02;240.02;;;231.23;;
52620;SDS011;38515;53.160;6.990;2023-02-28T04:49:28;227.38;;;218.60;;
52620;SDS011;38515;53.160;6.990;2023-02-28T04:51:54;224.15;;;216.00;;
52620;SDS011;38515;53.160;6.990;2023-02-28T04:54:20;220.43;;;212.05;;
52620;SDS011;38515;53.160;6.990;2023-02-28T04:56:46;231.85;;;222.90;;
52620;SDS011;38515;53.160;6.990;2023-02-28T04:59:14;221.13;;;213.13;;
52620;SDS011;38515;53.160;6.990;2023-02-28T05:01:40;231.50;;;223.00;;
52620;SDS011;38515;53.160;6.990;2023-02-28T05:04:11;207.40;;;198.85;;
52620;SDS011;38515;53.160;6.990;2023-02-28T05:06:37;227.38;;;218.27;;
52620;SDS011;38515;53.160;6.990;2023-02-28T05:09:03;248.88;;;239.82;;
52620;SDS011;38515;53.160;6.990;2023-02-28T05:11:30;230.68;;;221.90;;
52620;SDS011;38515;53.160;6.990;2023-02-28T05:14:04;252.75;;;243.23;;
52620;SDS011;38515;53.160;6.990;2023-02-28T05:16:32;250.20;;;240.65;;
52620;SDS011;38515;53.160;6.990;2023-02-28T05:18:58;199.13;;;191.70;;
52620;SDS011;38515;53.160;6.990;2023-02-28T05:21:26;234.38;;;225.70;;
52620;SDS011;38515;53.160;6.990;2023-02-28T05:24:00;222.10;;;213.52;;
52620;SDS011;38515;53.160;6.990;2023-02-28T05:26:28;222.15;;;213.80;;
52620;SDS011;38515;53.160;6.990;2023-02-28T05:28:54;187.45;;;180.10;;
52620;SDS011;38515;53.160;6.990;2023-02-28T05:31:21;230.15;;;221.65;;
52620;SDS011;38515;53.160;6.990;2023-02-28T05:33:47;232.10;;;223.43;;
52620;SDS011;38515;53.160;6.990;2023-02-28T05:36:13;233.05;;;224.30;;
52620;SDS011;38515;53.160;6.990;2023-02-28T05:38:39;229.45;;;220.32;;
52620;SDS011;38515;53.160;6.990;2023-02-28T05:41:06;232.27;;;223.52;;
52620;SDS011;38515;53.160;6.990;2023-02-28T05:43:33;202.05;;;194.57;;
52620;SDS011;38515;53.160;6.990;2023-02-28T05:45:59;221.00;;;211.65;;
52620;SDS011;38515;53.160;6.990;2023-02-28T05:48:27;194.65;;;186.25;;
52620;SDS011;38515;53.160;6.990;2023-02-28T05:50:52;203.27;;;195.48;;
52620;SDS011;38515;53.160;6.990;2023-02-28T05:53:18;190.43;;;182.88;;
52620;SDS011;38515;53.160;6.990;2023-02-28T05:55:44;203.30;;;195.80;;
52620;SDS011;38515;53.160;6.990;2023-02-28T05:58:10;201.88;;;193.55;;
52620;SDS011;38515;53.160;6.990;2023-02-28T06:00:36;243.90;;;234.55;;
52620;SDS011;38515;53.160;6.990;2023-02-28T06:03:02;253.50;;;244.05;;
52620;SDS011;38515;53.160;6.990;2023-02-28T06:05:28;213.27;;;204.68;;
52620;SDS011;38515;53.160;6.990;2023-02-28T06:07:53;224.00;;;215.30;;
52620;SDS011;38515;53.160;6.990;2023-02-28T06:10:19;222.77;;;213.73;;
52620;SDS011;38515;53.160;6.990;2023-02-28T06:12:45;204.15;;;196.13;;
52620;SDS011;38515;53.160;6.990;2023-02-28T06:15:12;196.05;;;188.15;;
52620;SDS011;38515;53.160;6.990;2023-02-28T06:17:40;161.73;;;155.18;;
52620;SDS011;38515;53.160;6.990;2023-02-28T06:20:08;197.18;;;189.60;;
52620;SDS011;38515;53.160;6.990;2023-02-28T06:22:36;188.07;;;180.77;;
52620;SDS011;38515;53.160;6.990;2023-02-28T06:25:02;190.75;;;182.98;;
52620;SDS011;38515;53.160;6.990;2023-02-28T06:27:30;156.57;;;150.07;;
52620;SDS011;38515;53.160;6.990;2023-02-28T06:29:56;211.07;;;202.93;;
52620;SDS011;38515;53.160;6.990;2023-02-28T06:32:22;199.30;;;191.57;;
52620;SDS011;38515;53.160;6.990;2023-02-28T06:34:48;229.32;;;220.55;;
52620;SDS011;38515;53.160;6.990;2023-02-28T06:37:15;56.83;;;54.15;;
52620;SDS011;38515;53.160;6.990;2023-02-28T06:39:42;178.85;;;171.82;;
52620;SDS011;38515;53.160;6.990;2023-02-28T06:42:08;163.68;;;156.90;;
52620;SDS011;38515;53.160;6.990;2023-02-28T06:44:34;125.00;;;119.90;;
52620;SDS011;38515;53.160;6.990;2023-02-28T06:47:04;147.52;;;141.95;;
52620;SDS011;38515;53.160;6.990;2023-02-28T06:49:31;185.50;;;178.10;;
52620;SDS011;38515;53.160;6.990;2023-02-28T06:51:58;163.95;;;157.35;;
52620;SDS011;38515;53.160;6.990;2023-02-28T06:54:24;126.25;;;120.50;;
52620;SDS011;38515;53.160;6.990;2023-02-28T06:56:50;187.20;;;179.45;;
52620;SDS011;38515;53.160;6.990;2023-02-28T06:59:16;135.73;;;129.52;;
52620;SDS011;38515;53.160;6.990;2023-02-28T07:01:42;177.20;;;170.05;;
52620;SDS011;38515;53.160;6.990;2023-02-28T07:04:08;195.02;;;187.05;;
52620;SDS011;38515;53.160;6.990;2023-02-28T07:06:34;150.18;;;144.00;;
52620;SDS011;38515;53.160;6.990;2023-02-28T07:09:00;178.52;;;171.15;;
52620;SDS011;38515;53.160;6.990;2023-02-28T07:11:27;184.40;;;177.32;;
52620;SDS011;38515;53.160;6.990;2023-02-28T07:13:53;173.20;;;165.55;;
52620;SDS011;38515;53.160;6.990;2023-02-28T07:16:21;162.65;;;156.15;;
52620;SDS011;38515;53.160;6.990;2023-02-28T07:18:48;168.18;;;161.20;;
52620;SDS011;38515;53.160;6.990;2023-02-28T07:21:14;149.35;;;143.23;;
52620;SDS011;38515;53.160;6.990;2023-02-28T07:23:40;177.52;;;170.20;;
52620;SDS011;38515;53.160;6.990;2023-02-28T07:26:07;169.93;;;163.07;;
52620;SDS011;38515;53.160;6.990;2023-02-28T07:28:40;173.63;;;166.80;;
52620;SDS011;38515;53.160;6.990;2023-02-28T07:31:07;170.43;;;163.50;;
52620;SDS011;38515;53.160;6.990;2023-02-28T07:33:34;202.82;;;194.27;;
52620;SDS011;38515;53.160;6.990;2023-02-28T07:36:01;133.80;;;128.10;;
52620;SDS011;38515;53.160;6.990;2023-02-28T07:38:27;149.00;;;142.95;;
52620;SDS011;38515;53.160;6.990;2023-02-28T07:40:53;173.13;;;165.68;;
52620;SDS011;38515;53.160;6.990;2023-02-28T07:43:19;166.27;;;159.25;;
52620;SDS011;38515;53.160;6.990;2023-02-28T07:45:45;178.70;;;171.80;;
52620;SDS011;38515;53.160;6.990;2023-02-28T07:48:11;165.98;;;159.43;;
52620;SDS011;38515;53.160;6.990;2023-02-28T07:50:37;185.40;;;178.23;;
52620;SDS011;38515;53.160;6.990;2023-02-28T07:53:03;197.50;;;189.73;;
52620;SDS011;38515;53.160;6.990;2023-02-28T07:55:29;204.05;;;195.65;;
52620;SDS011;38515;53.160;6.990;2023-02-28T07:57:56;229.63;;;220.70;;
52620;SDS011;38515;53.160;6.990;2023-02-28T08:00:22;221.68;;;212.75;;
52620;SDS011;38515;53.160;6.990;2023-02-28T08:02:49;194.52;;;187.05;;
52620;SDS011;38515;53.160;6.990;2023-02-28T08:05:15;215.45;;;206.82;;
52620;SDS011;38515;53.160;6.990;2023-02-28T08:07:41;199.90;;;191.45;;
52620;SDS011;38515;53.160;6.990;2023-02-28T08:10:07;211.45;;;201.82;;
52620;SDS011;38515;53.160;6.990;2023-02-28T08:12:35;197.93;;;189.30;;
52620;SDS011;38515;53.160;6.990;2023-02-28T08:15:01;201.98;;;193.45;;
52620;SDS011;38515;53.160;6.990;2023-02-28T08:17:27;194.77;;;187.40;;
52620;SDS011;38515;53.160;6.990;2023-02-28T08:19:53;26.60;;;23.60;;
52620;SDS011;38515;53.160;6.990;2023-02-28T08:22:19;230.93;;;221.35;;
52620;SDS011;38515;53.160;6.990;2023-02-28T08:24:45;236.13;;;226.52;;
52620;SDS011;38515;53.160;6.990;2023-02-28T08:27:11;29.83;;;25.25;;
52620;SDS011;38515;53.160;6.990;2023-02-28T08:29:38;213.95;;;205.38;;
52620;SDS011;38515;53.160;6.990;2023-02-28T08:32:04;214.85;;;205.52;;
52620;SDS011;38515;53.160;6.990;2023-02-28T08:34:31;190.95;;;183.27;;
52620;SDS011;38515;53.160;6.990;2023-02-28T08:36:57;187.18;;;179.43;;
52620;SDS011;38515;53.160;6.990;2023-02-28T08:39:23;183.63;;;176.57;;
52620;SDS011;38515;53.160;6.990;2023-02-28T08:41:48;22.33;;;19.65;;
52620;SDS011;38515;53.160;6.990;2023-02-28T08:44:14;206.73;;;198.77;;
52620;SDS011;38515;53.160;6.990;2023-02-28T08:46:40;189.52;;;181.57;;
52620;SDS011;38515;53.160;6.990;2023-02-28T08:49:06;180.23;;;173.02;;
52620;SDS011;38515;53.160;6.990;2023-02-28T08:51:32;174.35;;;167.07;;
52620;SDS011;38515;53.160;6.990;2023-02-28T08:53:59;23.80;;;20.73;;
52620;SDS011;38515;53.160;6.990;2023-02-28T08:56:26;233.45;;;223.38;;
52620;SDS011;38515;53.160;6.990;2023-02-28T08:58:54;230.68;;;219.68;;
52620;SDS011;38515;53.160;6.990;2023-02-28T09:01:28;22.85;;;20.52;;
52620;SDS011;38515;53.160;6.990;2023-02-28T09:03:55;21.08;;;19.10;;
52620;SDS011;38515;53.160;6.990;2023-02-28T09:06:22;20.73;;;18.50;;
52620;SDS011;38515;53.160;6.990;2023-02-28T09:08:49;21.15;;;17.85;;
52620;SDS011;38515;53.160;6.990;2023-02-28T09:11:16;20.70;;;18.67;;
52620;SDS011;38515;53.160;6.990;2023-02-28T09:13:43;19.77;;;17.83;;
52620;SDS011;38515;53.160;6.990;2023-02-28T09:16:11;19.40;;;17.48;;
52620;SDS011;38515;53.160;6.990;2023-02-28T09:18:39;17.83;;;15.85;;
52620;SDS011;38515;53.160;6.990;2023-02-28T09:21:06;18.38;;;16.33;;
52620;SDS011;38515;53.160;6.990;2023-02-28T09:23:35;21.02;;;16.65;;
52620;SDS011;38515;53.160;6.990;2023-02-28T09:26:03;17.85;;;16.02;;
52620;SDS011;38515;53.160;6.990;2023-02-28T09:28:30;19.77;;;17.65;;
52620;SDS011;38515;53.160;6.990;2023-02-28T09:30:56;18.77;;;16.88;;
52620;SDS011;38515;53.160;6.990;2023-02-28T09:33:25;18.88;;;16.67;;
52620;SDS011;38515;53.160;6.990;2023-02-28T09:35:57;17.60;;;15.65;;
52620;SDS011;38515;53.160;6.990;2023-02-28T09:38:24;18.05;;;16.25;;
52620;SDS011;38515;53.160;6.990;2023-02-28T09:40:51;20.20;;;17.48;;
52620;SDS011;38515;53.160;6.990;2023-02-28T09:43:24;24.50;;;19.05;;
52620;SDS011;38515;53.160;6.990;2023-02-28T09:45:55;19.50;;;17.65;;
52620;SDS011;38515;53.160;6.990;2023-02-28T09:48:34;22.20;;;18.20;;
52620;SDS011;38515;53.160;6.990;2023-02-28T09:51:05;19.10;;;17.10;;
52620;SDS011;38515;53.160;6.990;2023-02-28T09:53:46;19.50;;;17.50;;
52620;SDS011;38515;53.160;6.990;2023-02-28T09:56:18;20.98;;;17.42;;
52620;SDS011;38515;53.160;6.990;2023-02-28T09:59:25;22.30;;;19.30;;
52620;SDS011;38515;53.160;6.990;2023-02-28T10:01:58;19.58;;;17.55;;
52620;SDS011;38515;53.160;6.990;2023-02-28T10:05:27;25.08;;;18.98;;
52620;SDS011;38515;53.160;6.990;2023-02-28T10:13:13;20.13;;;16.35;;
52620;SDS011;38515;53.160;6.990;2023-02-28T10:16:03;17.77;;;15.98;;
52620;SDS011;38515;53.160;6.990;2023-02-28T10:18:47;16.90;;;15.18;;
52620;SDS011;38515;53.160;6.990;2023-02-28T10:21:36;16.52;;;14.80;;
52620;SDS011;38515;53.160;6.990;2023-02-28T10:24:27;16.08;;;14.00;;
52620;SDS011;38515;53.160;6.990;2023-02-28T10:29:45;16.85;;;15.05;;
52620;SDS011;38515;53.160;6.990;2023-02-28T10:32:14;21.17;;;16.50;;
52620;SDS011;38515;53.160;6.990;2023-02-28T10:35:07;23.80;;;17.88;;
52620;SDS011;38515;53.160;6.990;2023-02-28T10:37:44;17.65;;;16.05;;
52620;SDS011;38515;53.160;6.990;2023-02-28T10:40:35;21.13;;;16.75;;
52620;SDS011;38515;53.160;6.990;2023-02-28T10:43:02;18.48;;;16.23;;
52620;SDS011;38515;53.160;6.990;2023-02-28T10:46:30;16.35;;;14.85;;
52620;SDS011;38515;53.160;6.990;2023-02-28T10:48:44;15.18;;;13.82;;
52620;SDS011;38515;53.160;6.990;2023-02-28T10:51:15;16.83;;;15.13;;
52620;SDS011;38515;53.160;6.990;2023-02-28T10:53:50;17.73;;;16.08;;
52620;SDS011;38515;53.160;6.990;2023-02-28T10:56:22;16.07;;;14.53;;
52620;SDS011;38515;53.160;6.990;2023-02-28T10:58:54;16.15;;;14.52;;
52620;SDS011;38515;53.160;6.990;2023-02-28T11:01:42;62.85;;;59.80;;
52620;SDS011;38515;53.160;6.990;2023-02-28T11:09:39;75.88;;;72.53;;
52620;SDS011;38515;53.160;6.990;2023-02-28T11:12:19;16.33;;;14.65;;
52620;SDS011;38515;53.160;6.990;2023-02-28T11:15:39;94.53;;;90.03;;
52620;SDS011;38515;53.160;6.990;2023-02-28T11:20:35;81.68;;;78.07;;
52620;SDS011;38515;53.160;6.990;2023-02-28T11:23:02;15.98;;;14.35;;
52620;SDS011;38515;53.160;6.990;2023-02-28T11:25:33;17.67;;;15.85;;
52620;SDS011;38515;53.160;6.990;2023-02-28T11:28:02;15.60;;;14.00;;
52620;SDS011;38515;53.160;6.990;2023-02-28T11:30:37;15.90;;;14.25;;
52620;SDS011;38515;53.160;6.990;2023-02-28T11:33:23;73.82;;;70.45;;
52620;SDS011;38515;53.160;6.990;2023-02-28T11:35:56;14.13;;;12.82;;
52620;SDS011;38515;53.160;6.990;2023-02-28T11:38:28;15.75;;;13.90;;
52620;SDS011;38515;53.160;6.990;2023-02-28T12:01:57;10.20;;;9.25;;
52620;SDS011;38515;53.160;6.990;2023-02-28T12:04:43;11.57;;;10.48;;
52620;SDS011;38515;53.160;6.990;2023-02-28T12:12:53;11.82;;;10.82;;
52620;SDS011;38515;53.160;6.990;2023-02-28T12:18:45;14.25;;;11.68;;
52620;SDS011;38515;53.160;6.990;2023-02-28T12:27:05;11.88;;;10.98;;
52620;SDS011;38515;53.160;6.990;2023-02-28T12:29:48;12.10;;;10.88;;
52620;SDS011;38515;53.160;6.990;2023-02-28T12:32:26;12.80;;;11.50;;
52620;SDS011;38515;53.160;6.990;2023-02-28T12:35:03;13.52;;;11.15;;
52620;SDS011;38515;53.160;6.990;2023-02-28T12:37:45;11.43;;;10.43;;
52620;SDS011;38515;53.160;6.990;2023-02-28T12:40:21;10.25;;;9.25;;
52620;SDS011;38515;53.160;6.990;2023-02-28T12:42:59;12.20;;;9.45;;
52620;SDS011;38515;53.160;6.990;2023-02-28T12:48:13;12.20;;;10.38;;
52620;SDS011;38515;53.160;6.990;2023-02-28T12:50:44;12.55;;;9.98;;
52620;SDS011;38515;53.160;6.990;2023-02-28T12:56:07;12.52;;;10.48;;
52620;SDS011;38515;53.160;6.990;2023-02-28T12:59:02;11.20;;;9.77;;
52620;SDS011;38515;53.160;6.990;2023-02-28T13:10:15;18.50;;;11.95;;
52620;SDS011;38515;53.160;6.990;2023-02-28T13:12:50;13.15;;;12.02;;
52620;SDS011;38515;53.160;6.990;2023-02-28T13:15:25;13.13;;;11.82;;
52620;SDS011;38515;53.160;6.990;2023-02-28T13:18:00;12.02;;;10.90;;
52620;SDS011;38515;53.160;6.990;2023-02-28T13:20:29;49.35;;;47.03;;
52620;SDS011;38515;53.160;6.990;2023-02-28T13:23:01;15.38;;;13.80;;
52620;SDS011;38515;53.160;6.990;2023-02-28T13:28:00;50.70;;;48.28;;
52620;SDS011;38515;53.160;6.990;2023-02-28T13:33:36;14.50;;;13.10;;
52620;SDS011;38515;53.160;6.990;2023-02-28T13:46:27;16.05;;;14.55;;
52620;SDS011;38515;53.160;6.990;2023-02-28T13:48:53;56.33;;;53.78;;
52620;SDS011;38515;53.160;6.990;2023-02-28T13:51:39;53.80;;;51.22;;
52620;SDS011;38515;53.160;6.990;2023-02-28T14:05:29;17.25;;;15.65;;
52620;SDS011;38515;53.160;6.990;2023-02-28T14:07:58;17.27;;;14.55;;
52620;SDS011;38515;53.160;6.990;2023-02-28T14:10:34;13.60;;;12.50;;
52620;SDS011;38515;53.160;6.990;2023-02-28T14:16:02;13.77;;;12.45;;
52620;SDS011;38515;53.160;6.990;2023-02-28T14:18:36;39.50;;;37.53;;
52620;SDS011;38515;53.160;6.990;2023-02-28T14:24:09;16.63;;;15.07;;
52620;SDS011;38515;53.160;6.990;2023-02-28T14:38:18;13.52;;;12.30;;
52620;SDS011;38515;53.160;6.990;2023-02-28T14:40:51;13.90;;;12.50;;
52620;SDS011;38515;53.160;6.990;2023-02-28T14:43:28;37.60;;;35.90;;
52620;SDS011;38515;53.160;6.990;2023-02-28T14:45:57;12.75;;;11.75;;
52620;SDS011;38515;53.160;6.990;2023-02-28T14:48:25;13.77;;;12.40;;
52620;SDS011;38515;53.160;6.990;2023-02-28T14:50:53;13.43;;;12.27;;
52620;SDS011;38515;53.160;6.990;2023-02-28T14:53:22;14.15;;;12.80;;
52620;SDS011;38515;53.160;6.990;2023-02-28T14:55:50;14.05;;;12.57;;
52620;SDS011;38515;53.160;6.990;2023-02-28T14:58:25;50.67;;;48.03;;
52620;SDS011;38515;53.160;6.990;2023-02-28T15:00:56;14.82;;;13.63;;
52620;SDS011;38515;53.160;6.990;2023-02-28T15:03:27;53.67;;;51.08;;
52620;SDS011;38515;53.160;6.990;2023-02-28T15:06:06;14.15;;;12.95;;
52620;SDS011;38515;53.160;6.990;2023-02-28T15:08:42;53.80;;;51.42;;
52620;SDS011;38515;53.160;6.990;2023-02-28T15:11:13;51.85;;;49.28;;
52620;SDS011;38515;53.160;6.990;2023-02-28T15:19:11;12.68;;;11.35;;
52620;SDS011;38515;53.160;6.990;2023-02-28T15:24:56;58.95;;;56.55;;
52620;SDS011;38515;53.160;6.990;2023-02-28T15:27:29;48.20;;;46.08;;
52620;SDS011;38515;53.160;6.990;2023-02-28T15:29:58;55.70;;;53.05;;
52620;SDS011;38515;53.160;6.990;2023-02-28T15:32:27;61.72;;;59.15;;
52620;SDS011;38515;53.160;6.990;2023-02-28T15:34:55;13.18;;;11.85;;
52620;SDS011;38515;53.160;6.990;2023-02-28T15:37:45;13.40;;;12.00;;
52620;SDS011;38515;53.160;6.990;2023-02-28T15:40:15;65.20;;;62.08;;
52620;SDS011;38515;53.160;6.990;2023-02-28T15:43:02;52.90;;;50.28;;
52620;SDS011;38515;53.160;6.990;2023-02-28T15:45:46;64.00;;;61.40;;
52620;SDS011;38515;53.160;6.990;2023-02-28T15:48:18;13.55;;;11.95;;
52620;SDS011;38515;53.160;6.990;2023-02-28T15:51:02;56.60;;;53.95;;
52620;SDS011;38515;53.160;6.990;2023-02-28T15:53:45;12.23;;;11.07;;
52620;SDS011;38515;53.160;6.990;2023-02-28T15:56:20;12.27;;;11.32;;
52620;SDS011;38515;53.160;6.990;2023-02-28T15:59:34;50.60;;;48.50;;
52620;SDS011;38515;53.160;6.990;2023-02-28T16:01:42;12.43;;;11.23;;
52620;SDS011;38515;53.160;6.990;2023-02-28T16:04:15;12.98;;;11.88;;
52620;SDS011;38515;53.160;6.990;2023-02-28T16:06:44;68.50;;;65.63;;
52620;SDS011;38515;53.160;6.990;2023-02-28T16:09:22;69.40;;;66.38;;
52620;SDS011;38515;53.160;6.990;2023-02-28T16:11:49;68.82;;;65.13;;
52620;SDS011;38515;53.160;6.990;2023-02-28T16:14:22;79.18;;;76.00;;
52620;SDS011;38515;53.160;6.990;2023-02-28T16:16:56;108.93;;;104.57;;
52620;SDS011;38515;53.160;6.990;2023-02-28T16:19:34;15.20;;;13.80;;
52620;SDS011;38515;53.160;6.990;2023-02-28T16:22:00;125.45;;;120.53;;
52620;SDS011;38515;53.160;6.990;2023-02-28T16:24:26;137.38;;;131.93;;
52620;SDS011;38515;53.160;6.990;2023-02-28T16:26:52;131.95;;;126.70;;
52620;SDS011;38515;53.160;6.990;2023-02-28T16:29:28;17.15;;;15.45;;
52620;SDS011;38515;53.160;6.990;2023-02-28T16:31:57;120.10;;;115.22;;
52620;SDS011;38515;53.160;6.990;2023-02-28T16:34:26;17.35;;;15.73;;
52620;SDS011;38515;53.160;6.990;2023-02-28T16:36:52;129.23;;;123.88;;
52620;SDS011;38515;53.160;6.990;2023-02-28T16:39:18;117.20;;;112.68;;
52620;SDS011;38515;53.160;6.990;2023-02-28T16:41:48;18.30;;;16.05;;
52620;SDS011;38515;53.160;6.990;2023-02-28T16:46:54;17.05;;;15.65;;
52620;SDS011;38515;53.160;6.990;2023-02-28T16:49:20;104.55;;;100.05;;
52620;SDS011;38515;53.160;6.990;2023-02-28T16:51:46;113.05;;;108.18;;
52620;SDS011;38515;53.160;6.990;2023-02-28T16:54:12;115.05;;;110.40;;
52620;SDS011;38515;53.160;6.990;2023-02-28T16:56:39;127.40;;;121.32;;
52620;SDS011;38515;53.160;6.990;2023-02-28T16:59:09;116.03;;;111.13;;
52620;SDS011;38515;53.160;6.990;2023-02-28T17:01:36;19.17;;;17.33;;
52620;SDS011;38515;53.160;6.990;2023-02-28T17:04:02;112.72;;;107.80;;
52620;SDS011;38515;53.160;6.990;2023-02-28T17:06:29;105.57;;;101.05;;
52620;SDS011;38515;53.160;6.990;2023-02-28T17:08:56;19.98;;;18.25;;